Time;durP1;ratioP1;P1;durP2;ratioP2;P2;SDS_P1;SDS_P2;PMS_P1;PMS_P2;Temp;Humidity;BMP_temperature;BMP_pressure;BME280_temperature;BME280_humidity;BME280_pressure;Samples;Min_cycle;Max_cycle;Signal;HPM_P1;HPM_P2
2021/05/10 00:01:06;;;;;;;1.73;1.20;;;22.70;46.20;;;;;;5075297;28;20472;-70
2021/05/10 00:03:32;;;;;;;2.03;1.50;;;22.70;46.40;;;;;;5075333;28;20453;-70
2021/05/10 00:05:59;;;;;;;3.07;1.97;;;22.70;46.10;;;;;;5075166;28;20477;-70
2021/05/10 00:08:26;;;;;;;2.47;1.20;;;22.60;46.20;;;;;;5075234;28;20430;-70
2021/05/10 00:10:53;;;;;;;4.60;1.50;;;22.50;46.00;;;;;;5075051;28;20445;-70
2021/05/10 00:13:19;;;;;;;2.20;1.17;;;22.50;45.40;;;;;;5075051;28;20567;-70
2021/05/10 00:15:46;;;;;;;2.10;1.17;;;22.50;45.30;;;;;;5075039;28;20441;-70
2021/05/10 00:18:13;;;;;;;2.73;1.43;;;22.50;45.30;;;;;;5075098;28;20421;-70
2021/05/10 00:20:42;;;;;;;2.33;1.30;;;22.40;45.10;;;;;;5074845;28;20806;-70
2021/05/10 00:23:10;;;;;;;2.70;1.53;;;22.40;45.60;;;;;;5074949;28;20445;-70
2021/05/10 00:25:37;;;;;;;3.90;1.23;;;22.40;45.50;;;;;;5074784;28;20480;-70
2021/05/10 00:28:05;;;;;;;3.43;1.20;;;22.50;45.60;;;;;;5074475;28;20441;-70
2021/05/10 00:30:32;;;;;;;1.90;1.60;;;22.40;45.40;;;;;;5074743;28;20788;-70
2021/05/10 00:32:58;;;;;;;3.70;1.90;;;22.40;45.40;;;;;;5074639;28;20487;-70
2021/05/10 00:35:25;;;;;;;6.20;1.50;;;22.30;45.10;;;;;;5074647;28;20518;-70
2021/05/10 00:37:52;;;;;;;2.33;1.50;;;22.30;45.90;;;;;;5074620;28;20449;-70
2021/05/10 00:40:20;;;;;;;3.17;1.53;;;22.20;45.50;;;;;;5074622;28;20453;-70
2021/05/10 00:42:46;;;;;;;4.47;1.50;;;22.10;45.80;;;;;;5074499;28;20559;-70
2021/05/10 00:45:14;;;;;;;3.97;1.60;;;22.10;46.40;;;;;;5074569;28;20538;-70
2021/05/10 00:47:40;;;;;;;2.03;1.53;;;22.00;45.90;;;;;;5074606;28;20440;-71
2021/05/10 00:50:09;;;;;;;3.00;1.97;;;22.00;46.40;;;;;;5074576;28;20476;-71
2021/05/10 00:52:36;;;;;;;4.50;1.77;;;22.00;46.10;;;;;;5074408;28;20464;-70
2021/05/10 00:55:03;;;;;;;1.80;1.23;;;22.00;45.50;;;;;;5074317;28;20440;-70
2021/05/10 00:57:33;;;;;;;3.03;1.33;;;21.90;45.80;;;;;;5073901;28;20950;-70
2021/05/10 01:00:01;;;;;;;1.43;1.33;;;22.00;45.60;;;;;;5074204;28;20437;-70
2021/05/10 01:02:28;;;;;;;3.70;2.03;;;21.90;45.60;;;;;;5074198;28;20476;-70
2021/05/10 01:04:54;;;;;;;8.63;1.90;;;21.90;45.20;;;;;;5073695;28;20930;-70
2021/05/10 01:07:20;;;;;;;4.13;1.40;;;21.90;45.00;;;;;;5073579;28;20811;-70
2021/05/10 01:09:46;;;;;;;4.53;1.60;;;22.00;45.40;;;;;;5073646;28;20443;-70
2021/05/10 01:12:13;;;;;;;4.00;1.63;;;22.00;44.90;;;;;;5073858;28;20465;-70
2021/05/10 01:14:39;;;;;;;2.40;1.53;;;22.00;44.90;;;;;;5073847;28;20808;-70
2021/05/10 01:17:05;;;;;;;2.23;1.60;;;22.10;45.10;;;;;;5073862;28;20432;-70
2021/05/10 01:19:34;;;;;;;4.17;1.60;;;22.10;45.00;;;;;;5073818;28;20445;-71
2021/05/10 01:22:05;;;;;;;4.47;2.00;;;22.10;43.10;;;;;;5073665;28;20461;-70
2021/05/10 01:24:33;;;;;;;2.70;1.20;;;22.10;43.20;;;;;;5073822;28;20431;-70
2021/05/10 01:27:00;;;;;;;5.77;1.73;;;22.20;43.10;;;;;;5073679;28;20516;-70
2021/05/10 01:29:26;;;;;;;1.67;1.50;;;22.20;42.40;;;;;;5073724;28;20456;-70
2021/05/10 01:31:52;;;;;;;2.73;1.50;;;22.30;42.70;;;;;;5073349;28;20468;-70
2021/05/10 01:34:19;;;;;;;3.80;1.33;;;22.30;42.60;;;;;;5073613;28;20449;-70
2021/05/10 01:36:45;;;;;;;2.60;1.40;;;22.40;42.90;;;;;;5073601;28;20822;-70
2021/05/10 01:39:12;;;;;;;2.67;1.70;;;22.40;42.50;;;;;;5073598;28;20441;-70
2021/05/10 01:41:39;;;;;;;3.60;1.43;;;22.40;42.60;;;;;;5073480;28;20465;-70
2021/05/10 01:44:06;;;;;;;2.57;1.37;;;22.40;43.00;;;;;;5073543;28;20451;-70
2021/05/10 01:46:32;;;;;;;6.70;1.80;;;22.40;42.50;;;;;;5073141;28;20477;-70
2021/05/10 01:48:58;;;;;;;6.17;1.70;;;22.40;41.80;;;;;;5073477;28;20444;-70
2021/05/10 01:51:25;;;;;;;3.50;1.13;;;22.50;41.50;;;;;;5073267;28;20483;-70
2021/05/10 01:53:51;;;;;;;4.23;1.30;;;22.50;41.50;;;;;;5073540;28;20475;-70
2021/05/10 01:56:17;;;;;;;6.80;1.53;;;22.50;41.30;;;;;;5073458;28;20452;-70
2021/05/10 01:58:51;;;;;;;2.90;1.20;;;22.50;41.10;;;;;;5073743;28;20441;-70
2021/05/10 02:01:18;;;;;;;9.30;1.87;;;22.50;41.10;;;;;;5073360;28;20589;-70
2021/05/10 02:03:44;;;;;;;9.63;1.67;;;22.50;41.10;;;;;;5073110;28;20445;-70
2021/05/10 02:06:10;;;;;;;10.57;1.60;;;22.60;41.40;;;;;;5073325;28;20472;-70
2021/05/10 02:08:36;;;;;;;7.53;1.60;;;22.60;41.40;;;;;;5073357;28;20460;-70
2021/05/10 02:11:03;;;;;;;3.53;1.40;;;22.60;41.70;;;;;;5073342;28;20468;-70
2021/05/10 02:13:29;;;;;;;9.23;2.20;;;22.60;41.90;;;;;;5073354;28;20449;-70
2021/05/10 02:15:58;;;;;;;2.03;1.00;;;22.60;41.90;;;;;;5073022;28;20824;-70
2021/05/10 02:18:27;;;;;;;4.00;1.87;;;22.60;42.10;;;;;;5074278;28;20440;-70
2021/05/10 02:20:54;;;;;;;2.63;1.00;;;22.60;42.30;;;;;;5076835;28;21052;-70
2021/05/10 02:23:22;;;;;;;5.67;1.57;;;22.50;42.20;;;;;;5077384;28;20799;-70
2021/05/10 02:25:50;;;;;;;3.20;1.77;;;22.50;42.40;;;;;;5077138;28;20492;-70
2021/05/10 02:28:20;;;;;;;8.93;1.57;;;22.50;42.60;;;;;;5077214;28;20452;-70
2021/05/10 02:30:47;;;;;;;3.47;1.37;;;22.40;42.70;;;;;;5077082;28;20931;-70
2021/05/10 02:33:16;;;;;;;3.33;1.50;;;22.40;42.90;;;;;;5077092;28;20494;-70
2021/05/10 02:35:44;;;;;;;4.03;1.20;;;22.40;43.40;;;;;;5076904;28;20957;-70
2021/05/10 02:38:11;;;;;;;5.30;1.10;;;22.30;43.20;;;;;;5076699;28;20938;-70
2021/05/10 02:40:37;;;;;;;2.63;1.27;;;22.30;43.20;;;;;;5077088;28;20809;-70
2021/05/10 02:43:04;;;;;;;3.90;1.57;;;22.30;43.30;;;;;;5077015;28;20445;-70
2021/05/10 02:45:30;;;;;;;1.77;1.30;;;22.30;43.30;;;;;;5076494;28;20997;-70
2021/05/10 02:47:57;;;;;;;2.40;1.13;;;22.20;43.60;;;;;;5077086;28;20452;-70
2021/05/10 02:50:26;;;;;;;2.20;1.03;;;22.20;43.70;;;;;;5076680;28;20466;-70
2021/05/10 02:52:53;;;;;;;3.43;1.80;;;22.20;43.90;;;;;;5076588;28;20555;-70
2021/05/10 02:55:20;;;;;;;1.27;1.00;;;22.20;44.10;;;;;;5076554;28;20784;-70
2021/05/10 02:57:49;;;;;;;1.73;1.20;;;22.20;44.10;;;;;;5076188;28;20960;-70
2021/05/10 03:00:17;;;;;;;2.73;1.47;;;22.20;44.10;;;;;;5076191;28;21018;-70
2021/05/10 03:02:44;;;;;;;2.20;1.17;;;22.20;44.20;;;;;;5076337;28;20487;-70
2021/05/10 03:05:12;;;;;;;1.80;1.40;;;22.10;44.60;;;;;;5076324;28;20444;-70
2021/05/10 03:07:40;;;;;;;2.40;1.27;;;22.10;44.00;;;;;;5076034;28;20803;-70
2021/05/10 03:10:09;;;;;;;2.70;1.40;;;22.10;44.10;;;;;;5076285;28;20518;-70
2021/05/10 03:12:36;;;;;;;6.67;1.50;;;22.00;43.80;;;;;;5076221;28;20971;-70
2021/05/10 03:15:03;;;;;;;1.83;1.50;;;22.00;44.10;;;;;;5076198;28;20448;-70
2021/05/10 03:17:30;;;;;;;1.53;1.07;;;22.00;44.20;;;;;;5076371;28;20455;-70
2021/05/10 03:19:56;;;;;;;1.10;0.90;;;21.90;43.90;;;;;;5076130;28;20449;-70
2021/05/10 03:22:22;;;;;;;2.00;1.13;;;21.90;44.10;;;;;;5075997;28;20511;-70
2021/05/10 03:24:49;;;;;;;2.13;1.40;;;21.90;44.20;;;;;;5076076;28;20468;-70
2021/05/10 03:27:15;;;;;;;3.23;1.20;;;21.90;44.20;;;;;;5075929;28;20481;-70
2021/05/10 03:29:41;;;;;;;2.10;1.30;;;21.90;44.50;;;;;;5074622;28;20543;-70
2021/05/10 03:32:08;;;;;;;4.03;1.50;;;21.80;44.30;;;;;;5075511;28;20525;-70
2021/05/10 03:34:34;;;;;;;6.83;1.43;;;21.90;44.40;;;;;;5075828;28;20502;-70
2021/05/10 03:37:00;;;;;;;1.50;1.20;;;21.90;44.60;;;;;;5075477;28;20789;-70
2021/05/10 03:39:27;;;;;;;2.63;1.37;;;21.90;44.40;;;;;;5075750;28;20453;-70
2021/05/10 03:41:54;;;;;;;3.77;1.60;;;21.90;44.30;;;;;;5075550;28;20473;-70
2021/05/10 03:44:20;;;;;;;2.87;1.63;;;21.80;44.50;;;;;;5075307;28;20441;-70
2021/05/10 03:46:46;;;;;;;3.23;1.20;;;21.80;44.20;;;;;;5075499;28;20823;-70
2021/05/10 03:49:12;;;;;;;3.47;1.30;;;21.80;44.00;;;;;;5075580;28;20452;-70
2021/05/10 03:51:39;;;;;;;3.60;1.40;;;21.80;44.40;;;;;;5075207;28;20472;-70
2021/05/10 03:54:05;;;;;;;3.07;1.17;;;21.80;44.70;;;;;;5075486;28;20448;-70
2021/05/10 03:56:31;;;;;;;5.37;1.33;;;21.90;44.50;;;;;;5075454;28;20445;-70
2021/05/10 03:58:58;;;;;;;2.00;1.37;;;21.90;44.50;;;;;;5075383;28;20861;-70
2021/05/10 04:01:25;;;;;;;1.40;1.30;;;21.90;44.60;;;;;;5074964;28;20472;-70
2021/05/10 04:03:57;;;;;;;3.53;1.23;;;21.90;44.30;;;;;;5075275;28;20444;-70
2021/05/10 04:14:48;;;;;;;5.17;1.47;;;21.80;44.90;;;;;;5057278;28;20786;-70
2021/05/10 04:17:14;;;;;;;3.30;1.23;;;21.80;45.10;;;;;;5075027;28;20452;-70
2021/05/10 04:19:40;;;;;;;11.67;1.40;;;21.80;44.90;;;;;;5074914;28;20440;-70
2021/05/10 04:22:06;;;;;;;5.17;1.50;;;21.80;45.10;;;;;;5074594;28;20977;-70
2021/05/10 04:24:33;;;;;;;4.23;1.63;;;21.80;45.40;;;;;;5074880;28;20437;-70
2021/05/10 04:27:01;;;;;;;3.40;1.40;;;21.70;45.20;;;;;;5074503;28;20515;-70
2021/05/10 04:29:27;;;;;;;3.67;1.63;;;21.80;45.60;;;;;;5074500;28;20809;-70
2021/05/10 04:31:54;;;;;;;2.60;1.60;;;21.80;45.50;;;;;;5074678;28;20464;-70
2021/05/10 04:34:21;;;;;;;1.47;1.23;;;21.80;45.50;;;;;;5074799;28;20445;-70
2021/05/10 04:36:47;;;;;;;3.77;1.80;;;21.80;45.50;;;;;;5074738;28;20451;-70
2021/05/10 04:39:13;;;;;;;2.53;1.47;;;21.80;45.50;;;;;;5075052;28;20448;-70
2021/05/10 04:41:39;;;;;;;3.80;1.57;;;21.70;45.70;;;;;;5075163;28;20464;-70
2021/05/10 04:44:06;;;;;;;3.90;1.80;;;21.70;45.80;;;;;;5074664;28;20806;-70
2021/05/10 04:46:32;;;;;;;3.10;1.03;;;21.70;46.10;;;;;;5074596;28;20840;-69
2021/05/10 04:48:59;;;;;;;1.93;1.67;;;21.70;46.10;;;;;;5074617;28;20451;-69
2021/05/10 04:51:25;;;;;;;6.13;1.60;;;21.60;46.20;;;;;;5074252;28;20476;-70
2021/05/10 04:53:52;;;;;;;3.13;1.70;;;21.60;46.40;;;;;;5074388;28;20811;-70
2021/05/10 04:56:18;;;;;;;4.20;1.30;;;21.50;46.60;;;;;;5074417;28;20441;-70
2021/05/10 04:58:44;;;;;;;3.03;1.63;;;21.50;46.70;;;;;;5074321;28;20510;-70
2021/05/10 05:01:11;;;;;;;3.43;1.40;;;21.50;46.60;;;;;;5074053;28;20501;-70
2021/05/10 05:03:37;;;;;;;8.97;1.50;;;21.60;46.80;;;;;;5074477;28;20453;-69
2021/05/10 05:06:04;;;;;;;4.17;1.27;;;21.50;46.80;;;;;;5073779;28;20819;-70
2021/05/10 05:08:30;;;;;;;6.33;2.27;;;21.60;46.90;;;;;;5074085;28;20463;-69
2021/05/10 05:10:57;;;;;;;2.40;1.20;;;21.50;47.10;;;;;;5074152;28;20441;-70
2021/05/10 05:13:24;;;;;;;4.10;1.40;;;21.50;47.10;;;;;;5074233;28;20433;-69
2021/05/10 05:15:50;;;;;;;2.13;1.70;;;21.50;47.50;;;;;;5073764;28;20921;-70
2021/05/10 05:18:17;;;;;;;1.60;1.33;;;21.50;47.70;;;;;;5074013;28;20485;-69
2021/05/10 05:20:43;;;;;;;2.97;1.60;;;21.50;47.70;;;;;;5073993;28;20425;-69
2021/05/10 05:23:21;;;;;;;4.30;1.97;;;21.50;47.90;;;;;;5074159;28;20436;-69
2021/05/10 05:25:54;;;;;;;6.70;1.90;;;21.50;48.00;;;;;;5073934;28;20456;-70
2021/05/10 05:28:20;;;;;;;4.50;1.77;;;21.50;47.80;;;;;;5073921;28;20429;-69
2021/05/10 05:30:46;;;;;;;1.80;1.27;;;21.60;48.00;;;;;;5073936;28;20502;-70
2021/05/10 05:33:13;;;;;;;6.23;1.50;;;21.60;48.10;;;;;;5073876;28;20437;-70
2021/05/10 05:35:39;;;;;;;2.50;1.33;;;21.60;48.00;;;;;;5073859;28;20436;-70
2021/05/10 05:38:09;;;;;;;1.53;1.43;;;21.50;48.20;;;;;;5073990;28;20523;-69
2021/05/10 05:40:36;;;;;;;2.40;1.07;;;21.60;48.70;;;;;;5073859;28;20449;-69
2021/05/10 05:43:02;;;;;;;2.83;1.40;;;21.60;48.70;;;;;;5073545;28;20825;-69
2021/05/10 05:45:29;;;;;;;5.93;2.07;;;21.60;48.50;;;;;;5073397;28;20942;-70
2021/05/10 05:47:55;;;;;;;4.43;1.50;;;21.60;48.60;;;;;;5073751;28;20812;-69
2021/05/10 05:50:40;;;;;;;5.07;1.60;;;21.60;49.00;;;;;;5073491;28;20468;-67
2021/05/10 05:53:07;;;;;;;5.10;1.70;;;21.60;48.90;;;;;;5072859;28;20452;-67
2021/05/10 05:55:33;;;;;;;2.30;1.60;;;21.60;49.10;;;;;;5073442;28;20433;-67
2021/05/10 05:58:01;;;;;;;4.10;1.53;;;21.60;49.10;;;;;;5073370;28;20444;-67
2021/05/10 06:00:28;;;;;;;7.07;1.97;;;21.50;49.20;;;;;;5073445;28;20429;-67
2021/05/10 06:02:54;;;;;;;4.13;1.80;;;21.60;49.50;;;;;;5073309;28;20974;-68
2021/05/10 06:05:21;;;;;;;5.70;2.53;;;21.60;49.20;;;;;;5073534;28;20914;-68
2021/05/10 06:07:48;;;;;;;4.87;1.70;;;21.50;49.40;;;;;;5073620;28;20824;-67
2021/05/10 06:10:17;;;;;;;2.70;1.60;;;21.60;49.90;;;;;;5073219;28;20452;-67
2021/05/10 06:12:44;;;;;;;3.30;1.73;;;21.60;49.70;;;;;;5073181;28;20469;-67
2021/05/10 06:15:13;;;;;;;4.87;1.50;;;21.70;49.70;;;;;;5073252;28;20477;-67
2021/05/10 06:17:40;;;;;;;4.27;1.40;;;21.60;49.60;;;;;;5073217;28;20448;-67
2021/05/10 06:20:08;;;;;;;2.10;1.70;;;21.60;49.50;;;;;;5073232;28;20433;-67
2021/05/10 06:22:36;;;;;;;2.10;1.40;;;21.50;49.50;;;;;;5073217;28;20461;-68
2021/05/10 06:25:03;;;;;;;4.00;1.47;;;21.60;49.70;;;;;;5073136;28;20429;-68
2021/05/10 06:27:29;;;;;;;4.97;1.90;;;21.60;49.60;;;;;;5072741;28;20997;-68
2021/05/10 06:29:55;;;;;;;4.27;1.40;;;21.60;49.50;;;;;;5072781;28;20444;-68
2021/05/10 06:32:22;;;;;;;4.00;1.27;;;21.70;49.60;;;;;;5073062;28;20464;-68
2021/05/10 06:34:48;;;;;;;2.70;1.40;;;21.80;49.60;;;;;;5073145;28;20425;-67
2021/05/10 06:37:19;;;;;;;2.77;1.60;;;21.90;49.30;;;;;;5073335;28;20429;-68
2021/05/10 06:39:45;;;;;;;3.97;1.20;;;22.00;49.20;;;;;;5073082;28;20838;-68
2021/05/10 06:42:11;;;;;;;4.90;1.60;;;22.10;49.10;;;;;;5072910;28;20469;-68
2021/05/10 06:44:37;;;;;;;2.73;1.20;;;22.20;49.00;;;;;;5072701;28;20429;-68
2021/05/10 06:47:03;;;;;;;3.23;1.20;;;22.30;48.10;;;;;;5072944;28;20514;-68
2021/05/10 06:49:30;;;;;;;5.43;1.60;;;22.30;48.00;;;;;;5073600;28;20452;-68
2021/05/10 06:51:57;;;;;;;6.17;1.20;;;22.20;48.40;;;;;;5072822;28;20480;-68
2021/05/10 06:54:23;;;;;;;3.53;1.60;;;22.30;47.70;;;;;;5072902;28;20517;-68
2021/05/10 06:56:49;;;;;;;1.97;1.20;;;22.40;47.60;;;;;;5072896;28;20900;-68
2021/05/10 06:59:15;;;;;;;3.90;1.40;;;22.50;46.90;;;;;;5072958;28;20482;-68
2021/05/10 07:01:42;;;;;;;6.23;1.10;;;22.70;47.00;;;;;;5072466;28;20990;-68
2021/05/10 07:04:08;;;;;;;3.40;1.20;;;23.00;46.80;;;;;;5073903;28;20440;-68
2021/05/10 07:06:35;;;;;;;3.90;1.60;;;23.20;46.60;;;;;;5076336;28;20878;-68
2021/05/10 07:09:01;;;;;;;3.73;1.20;;;23.20;46.40;;;;;;5076893;28;20429;-69
2021/05/10 07:11:27;;;;;;;2.60;0.97;;;23.10;45.90;;;;;;5076547;28;20472;-68
2021/05/10 07:13:53;;;;;;;4.10;1.43;;;23.20;46.40;;;;;;5075928;28;20954;-68
2021/05/10 07:16:20;;;;;;;3.73;1.17;;;23.30;46.50;;;;;;5076231;28;20479;-68
2021/05/10 07:18:46;;;;;;;3.80;1.20;;;23.40;46.10;;;;;;5076504;28;20429;-68
2021/05/10 07:21:12;;;;;;;11.53;1.93;;;23.30;46.90;;;;;;5076046;28;20464;-68
2021/05/10 07:23:39;;;;;;;7.60;1.37;;;23.10;46.80;;;;;;5076098;28;20464;-68
2021/05/10 07:26:05;;;;;;;29.63;2.30;;;22.90;46.70;;;;;;5076033;28;20485;-68
2021/05/10 07:28:31;;;;;;;14.77;2.30;;;22.60;47.30;;;;;;5075750;28;20433;-68
2021/05/10 07:30:58;;;;;;;12.83;1.27;;;22.30;47.30;;;;;;5075958;28;20440;-68
2021/05/10 07:33:24;;;;;;;9.93;1.43;;;22.00;47.80;;;;;;5075947;28;20456;-68
2021/05/10 07:35:50;;;;;;;2.60;0.80;;;21.60;48.80;;;;;;5075797;28;20482;-67
2021/05/10 07:38:16;;;;;;;10.03;1.33;;;21.30;49.60;;;;;;5075937;28;20429;-68
2021/05/10 07:40:44;;;;;;;7.73;1.30;;;21.10;50.40;;;;;;5075517;28;20942;-68
2021/05/10 07:43:10;;;;;;;8.20;1.23;;;21.00;50.90;;;;;;5075731;28;20989;-68
2021/05/10 07:45:37;;;;;;;8.20;1.20;;;21.00;51.70;;;;;;5075668;28;20448;-68
2021/05/10 07:48:03;;;;;;;4.70;0.80;;;21.00;51.50;;;;;;5075399;28;20903;-68
2021/05/10 07:50:30;;;;;;;1.80;0.93;;;21.00;51.70;;;;;;5075474;28;20460;-68
2021/05/10 07:52:56;;;;;;;7.00;0.90;;;20.90;52.00;;;;;;5075333;28;21027;-68
2021/05/10 07:55:24;;;;;;;2.50;0.60;;;20.80;52.50;;;;;;5075534;28;20445;-68
2021/05/10 07:57:53;;;;;;;3.90;0.67;;;20.80;52.80;;;;;;5075166;28;20517;-68
2021/05/10 08:00:27;;;;;;;2.60;0.70;;;20.90;52.70;;;;;;5075433;28;20433;-68
2021/05/10 08:02:58;;;;;;;5.20;0.70;;;21.10;52.60;;;;;;5075271;28;20864;-68
2021/05/10 08:05:25;;;;;;;1.10;0.50;;;21.30;52.50;;;;;;5075324;28;20440;-68
2021/05/10 08:07:52;;;;;;;2.43;0.67;;;21.50;52.20;;;;;;5075885;28;21029;-69
2021/05/10 08:10:19;;;;;;;5.07;0.50;;;21.40;51.50;;;;;;5075164;28;20445;-68
2021/05/10 08:12:50;;;;;;;3.60;0.80;;;21.50;52.10;;;;;;5075177;28;20460;-68
2021/05/10 08:15:17;;;;;;;1.67;0.80;;;21.50;51.10;;;;;;5074553;28;20425;-68
2021/05/10 08:17:43;;;;;;;3.80;0.77;;;21.40;51.10;;;;;;5074742;28;20425;-68
2021/05/10 08:20:10;;;;;;;3.37;0.70;;;21.50;51.60;;;;;;5074770;28;20918;-68
2021/05/10 08:22:36;;;;;;;2.50;0.60;;;21.50;51.10;;;;;;5074962;28;20467;-68
2021/05/10 08:25:04;;;;;;;3.20;0.60;;;21.50;51.10;;;;;;5075220;28;20429;-68
2021/05/10 08:27:32;;;;;;;2.40;0.60;;;21.40;51.10;;;;;;5074731;28;20481;-68
2021/05/10 08:29:59;;;;;;;3.07;0.80;;;21.40;50.90;;;;;;5074848;28;20820;-68
2021/05/10 08:32:26;;;;;;;6.23;1.40;;;21.60;50.20;;;;;;5074787;28;20473;-68
2021/05/10 08:34:52;;;;;;;5.60;1.23;;;21.70;50.10;;;;;;5074876;28;20429;-68
2021/05/10 08:37:20;;;;;;;5.90;1.53;;;21.90;49.90;;;;;;5074686;28;20463;-69
2021/05/10 08:39:46;;;;;;;4.37;0.60;;;22.30;50.50;;;;;;5074725;28;20824;-69
2021/05/10 08:42:13;;;;;;;2.73;0.60;;;22.60;49.40;;;;;;5074584;28;20514;-69
2021/05/10 08:44:39;;;;;;;2.97;1.27;;;22.90;48.70;;;;;;5074546;28;20429;-69
2021/05/10 08:47:05;;;;;;;2.53;0.60;;;23.20;48.10;;;;;;5074264;28;21035;-68
2021/05/10 08:49:32;;;;;;;0.97;0.60;;;23.40;47.70;;;;;;5074479;28;20467;-68
2021/05/10 08:51:58;;;;;;;7.53;1.10;;;23.50;47.30;;;;;;5073894;28;20479;-68
2021/05/10 08:54:26;;;;;;;6.03;1.07;;;23.40;47.00;;;;;;5074334;28;20448;-69
2021/05/10 08:56:53;;;;;;;4.10;0.90;;;23.30;46.10;;;;;;5074354;28;20428;-69
2021/05/10 08:59:20;;;;;;;5.40;1.10;;;23.10;47.00;;;;;;5074174;28;20449;-69
2021/05/10 09:01:51;;;;;;;4.70;0.87;;;22.60;48.10;;;;;;5073892;28;20992;-68
2021/05/10 09:04:18;;;;;;;12.43;1.30;;;22.30;49.10;;;;;;5074136;28;20433;-68
2021/05/10 09:06:45;;;;;;;10.07;1.20;;;22.00;48.70;;;;;;5074145;28;20488;-68
2021/05/10 09:09:11;;;;;;;6.07;0.70;;;21.90;50.10;;;;;;5074114;28;20449;-68
2021/05/10 09:11:54;;;;;;;5.23;1.00;;;21.70;49.00;;;;;;5074052;28;20468;-69
2021/05/10 09:14:34;;;;;;;10.60;1.47;;;21.60;49.80;;;;;;5074422;28;20784;-69
2021/05/10 09:17:00;;;;;;;4.20;0.93;;;21.30;50.10;;;;;;5074138;28;20444;-69
2021/05/10 09:19:48;;;;;;;2.60;0.63;;;21.30;50.80;;;;;;5074639;28;20777;-69
2021/05/10 09:22:15;;;;;;;3.30;0.90;;;21.40;51.80;;;;;;5073903;28;20472;-69
2021/05/10 09:24:47;;;;;;;2.27;0.63;;;21.60;51.10;;;;;;5073968;28;20440;-70
2021/05/10 09:27:25;;;;;;;3.10;0.70;;;22.00;49.80;;;;;;5073840;28;20464;-70
2021/05/10 09:30:11;;;;;;;1.70;0.40;;;22.30;49.10;;;;;;5073900;28;20437;-69
2021/05/10 09:32:37;;;;;;;0.97;0.60;;;22.50;48.50;;;;;;5073729;28;20565;-69
2021/05/10 09:35:29;;;;;;;3.73;1.07;;;22.70;48.00;;;;;;5073746;28;20449;-69
2021/05/10 09:37:59;;;;;;;1.03;0.80;;;23.00;48.20;;;;;;5058784;28;20460;-70
2021/05/10 09:40:27;;;;;;;1.93;0.63;;;23.20;46.40;;;;;;5073631;28;20433;-70
2021/05/10 09:42:55;;;;;;;0.90;0.57;;;23.20;46.00;;;;;;5073101;28;20978;-70
2021/05/10 09:45:30;;;;;;;4.40;0.90;;;23.40;46.20;;;;;;5073588;28;20460;-70
2021/05/10 09:48:15;;;;;;;2.60;0.90;;;23.60;46.20;;;;;;5073420;28;20464;-70
2021/05/10 09:50:42;;;;;;;2.80;0.90;;;23.60;46.30;;;;;;5073461;28;20561;-69
2021/05/10 09:53:13;;;;;;;1.00;0.90;;;23.20;46.40;;;;;;5073577;28;20445;-69
2021/05/10 09:55:47;;;;;;;4.10;0.90;;;22.80;46.40;;;;;;5073470;28;20490;-70
2021/05/10 09:58:14;;;;;;;2.37;0.90;;;22.60;47.60;;;;;;5073154;28;20475;-70
2021/05/10 10:00:41;;;;;;;3.30;1.00;;;22.20;47.80;;;;;;5073405;28;20866;-70
2021/05/10 10:03:26;;;;;;;3.63;0.87;;;21.90;49.00;;;;;;5074190;28;20807;-70
2021/05/10 10:05:55;;;;;;;4.00;0.80;;;21.60;49.50;;;;;;5074162;28;20424;-70
2021/05/10 10:08:22;;;;;;;3.53;1.03;;;21.40;50.50;;;;;;5073317;28;20598;-69
2021/05/10 10:10:49;;;;;;;6.63;1.10;;;21.20;51.20;;;;;;5073287;28;20516;-69
2021/05/10 10:13:16;;;;;;;2.43;0.73;;;21.10;52.00;;;;;;5073382;28;20440;-69
2021/05/10 10:15:42;;;;;;;3.93;0.80;;;20.90;52.40;;;;;;5073015;28;20962;-69
2021/05/10 10:18:11;;;;;;;3.27;0.90;;;20.70;53.00;;;;;;5073003;28;20445;-69
2021/05/10 10:20:38;;;;;;;2.07;0.90;;;20.40;53.90;;;;;;5072970;28;20918;-69
2021/05/10 10:23:07;;;;;;;1.60;1.00;;;20.20;54.90;;;;;;5073242;28;20464;-69
2021/05/10 10:25:36;;;;;;;2.20;0.80;;;20.00;56.20;;;;;;5073162;28;20449;-69
2021/05/10 10:28:02;;;;;;;2.27;1.00;;;19.90;56.90;;;;;;5073115;28;20495;-69
2021/05/10 10:30:31;;;;;;;1.90;0.93;;;19.90;57.60;;;;;;5073083;28;20440;-69
2021/05/10 10:32:59;;;;;;;5.07;1.27;;;19.90;57.80;;;;;;5073062;28;20472;-69
2021/05/10 10:35:26;;;;;;;6.50;1.57;;;20.00;57.90;;;;;;5073071;28;20451;-69
2021/05/10 10:37:52;;;;;;;1.90;1.03;;;20.40;57.60;;;;;;5073069;28;20440;-69
2021/05/10 10:40:21;;;;;;;2.60;0.90;;;20.80;56.80;;;;;;5075746;28;20431;-69
2021/05/10 10:42:48;;;;;;;0.90;0.70;;;21.30;55.90;;;;;;5076802;28;20483;-69
2021/05/10 10:45:22;;;;;;;6.80;0.90;;;21.60;54.70;;;;;;5077397;28;20437;-70
2021/05/10 10:47:53;;;;;;;1.87;0.70;;;21.80;54.10;;;;;;5076802;28;20465;-70
2021/05/10 10:50:21;;;;;;;1.43;1.13;;;22.00;53.90;;;;;;5076384;28;21035;-70
2021/05/10 10:52:50;;;;;;;2.43;0.97;;;22.20;53.10;;;;;;5076641;28;20503;-70
2021/05/10 10:55:22;;;;;;;1.97;1.00;;;22.50;51.90;;;;;;5076689;28;20448;-70
2021/05/10 10:57:49;;;;;;;0.93;0.70;;;22.80;52.00;;;;;;5076468;28;20429;-70
2021/05/10 11:00:18;;;;;;;1.33;0.70;;;23.10;51.80;;;;;;5076570;28;20538;-70
2021/05/10 11:02:46;;;;;;;2.63;0.97;;;23.50;50.20;;;;;;5076486;28;20514;-69
2021/05/10 11:05:15;;;;;;;2.17;0.70;;;23.70;49.70;;;;;;5076540;28;20440;-70
2021/05/10 11:07:52;;;;;;;2.03;0.90;;;24.00;48.00;;;;;;5076625;28;20522;-70
2021/05/10 11:10:41;;;;;;;4.83;0.63;;;24.00;48.50;;;;;;5076379;28;20436;-69
2021/05/10 11:13:08;;;;;;;4.63;1.00;;;23.90;47.90;;;;;;5075925;28;21056;-69
2021/05/10 11:15:48;;;;;;;0.87;0.87;;;23.60;48.50;;;;;;5076428;28;20813;-69
2021/05/10 11:18:36;;;;;;;2.43;0.80;;;23.40;49.30;;;;;;5076366;28;20448;-69
2021/05/10 11:21:05;;;;;;;3.87;1.10;;;23.30;49.40;;;;;;5076164;28;20425;-69
2021/05/10 11:23:33;;;;;;;1.80;0.90;;;23.20;50.70;;;;;;5076210;28;20451;-69
2021/05/10 11:26:01;;;;;;;2.30;1.03;;;23.00;50.40;;;;;;5076035;28;20899;-69
2021/05/10 11:28:44;;;;;;;2.77;1.30;;;22.90;50.20;;;;;;5076067;28;20814;-69
2021/05/10 11:31:13;;;;;;;4.63;1.23;;;22.70;50.70;;;;;;5075909;28;20474;-69
2021/05/10 11:34:11;;;;;;;4.57;0.97;;;22.50;50.90;;;;;;5076013;28;20429;-69
2021/05/10 11:36:47;;;;;;;2.97;0.90;;;22.50;51.30;;;;;;5076015;28;20429;-69
2021/05/10 11:39:20;;;;;;;2.30;1.17;;;22.40;51.90;;;;;;5075677;28;20515;-69
2021/05/10 11:41:47;;;;;;;2.67;1.20;;;22.30;52.40;;;;;;5075873;28;20468;-69
2021/05/10 11:44:22;;;;;;;2.90;1.13;;;22.30;52.80;;;;;;5075756;28;20517;-69
2021/05/10 11:46:50;;;;;;;4.00;1.10;;;22.00;53.20;;;;;;5075369;28;20829;-69
2021/05/10 11:49:25;;;;;;;5.40;1.60;;;21.60;52.90;;;;;;5076315;28;20437;-69
2021/05/10 11:51:52;;;;;;;0.97;0.97;;;20.80;54.00;;;;;;5074071;28;20480;-69
2021/05/10 11:54:20;;;;;;;2.10;1.47;;;20.10;56.00;;;;;;5075552;28;20441;-68
2021/05/10 11:56:47;;;;;;;2.83;1.60;;;19.40;58.10;;;;;;5075525;28;20433;-68
2021/05/10 11:59:31;;;;;;;1.60;1.50;;;19.00;59.90;;;;;;5075750;28;20452;-68
2021/05/10 12:01:58;;;;;;;3.67;1.33;;;18.60;61.30;;;;;;5075385;28;20472;-68
2021/05/10 12:04:26;;;;;;;2.87;1.60;;;18.30;63.70;;;;;;5075452;28;20441;-68
2021/05/10 12:06:53;;;;;;;4.43;1.93;;;18.00;66.10;;;;;;5075016;28;20472;-69
2021/05/10 12:09:35;;;;;;;2.33;1.70;;;18.00;68.20;;;;;;5075372;28;20517;-69
2021/05/10 12:12:03;;;;;;;1.93;1.40;;;18.10;67.70;;;;;;5075252;28;20514;-68
2021/05/10 12:14:29;;;;;;;3.93;1.57;;;18.10;66.50;;;;;;5075218;28;20421;-69
2021/05/10 12:17:07;;;;;;;1.30;1.00;;;18.10;66.40;;;;;;5075225;28;20425;-69
2021/05/10 12:20:05;;;;;;;2.03;1.03;;;18.00;63.10;;;;;;5075113;28;20429;-68
2021/05/10 12:22:33;;;;;;;6.20;1.30;;;17.90;62.10;;;;;;5013153;28;20875;-68
2021/05/10 12:25:03;;;;;;;1.33;0.93;;;17.80;62.00;;;;;;5061965;28;20457;-68
2021/05/10 12:27:35;;;;;;;2.83;1.20;;;17.80;60.30;;;;;;5074608;28;20974;-69
2021/05/10 12:30:03;;;;;;;0.97;0.80;;;17.90;60.30;;;;;;5074954;28;20421;-69
2021/05/10 12:32:30;;;;;;;2.13;1.17;;;18.10;60.10;;;;;;5074482;28;20469;-69
2021/05/10 12:34:57;;;;;;;1.80;1.10;;;18.20;59.10;;;;;;5075391;28;20780;-69
2021/05/10 12:37:23;;;;;;;1.90;0.90;;;18.40;58.90;;;;;;5074714;28;20425;-69
2021/05/10 12:40:04;;;;;;;3.30;1.33;;;18.50;58.10;;;;;;5074961;28;20439;-69
2021/05/10 12:42:31;;;;;;;2.47;1.00;;;18.60;57.60;;;;;;5074604;28;20845;-69
2021/05/10 12:44:58;;;;;;;4.23;1.40;;;18.60;57.40;;;;;;5074556;28;20433;-69
2021/05/10 12:47:46;;;;;;;3.33;0.87;;;18.70;57.20;;;;;;5074140;28;20963;-69
2021/05/10 12:50:28;;;;;;;3.33;1.13;;;19.00;57.40;;;;;;5074475;28;20464;-69
2021/05/10 12:52:55;;;;;;;1.47;0.90;;;19.30;56.90;;;;;;5061350;28;20469;-69
2021/05/10 12:55:25;;;;;;;3.53;1.00;;;19.40;55.10;;;;;;5074412;28;20433;-69
2021/05/10 12:57:51;;;;;;;2.80;0.80;;;19.60;54.60;;;;;;5074128;28;20516;-69
2021/05/10 13:00:35;;;;;;;7.63;0.97;;;19.70;54.50;;;;;;5074230;28;20437;-69